createdAt,value
2022-10-01T00:00:26.781Z,99561.88
2022-10-01T00:02:57.083Z,99567.19
2022-10-01T00:05:24.452Z,99567.91
2022-10-01T00:07:51.557Z,99570.75
2022-10-01T00:10:18.748Z,99569.53
2022-10-01T00:12:47.535Z,99567.78
2022-10-01T00:15:15.789Z,99573.25
2022-10-01T00:17:43.629Z,99563.66
2022-10-01T00:20:14.737Z,99568.31
2022-10-01T00:22:42.025Z,99564.91
2022-10-01T00:25:09.577Z,99563.94
2022-10-01T00:27:38.160Z,99554.59
2022-10-01T00:30:06.161Z,99565.03
2022-10-01T00:32:33.462Z,99558.41
2022-10-01T00:35:00.791Z,99566.81
2022-10-01T00:37:28.203Z,99561.16
2022-10-01T00:39:55.614Z,99560.44
2022-10-01T00:42:24.459Z,99552.31
2022-10-01T00:44:51.620Z,99554.97
2022-10-01T00:47:21.513Z,99554.97
2022-10-01T00:49:49.765Z,99553.47
2022-10-01T00:52:18.813Z,99554.53
2022-10-01T00:54:51.468Z,99554.34
2022-10-01T00:57:20.879Z,99549.22
2022-10-01T00:59:48.314Z,99561.28
2022-10-01T01:02:15.610Z,99555.44
2022-10-01T01:04:43.038Z,99557.03
2022-10-01T01:07:10.319Z,99566.50
2022-10-01T01:09:40.086Z,99556.03
2022-10-01T01:12:25.692Z,99560.81
2022-10-01T01:14:59.840Z,99556.09
2022-10-01T01:17:32.202Z,99562.59
2022-10-01T01:20:08.590Z,99553.41
2022-10-01T01:22:37.831Z,99550.59
2022-10-01T01:25:05.377Z,99550.97
2022-10-01T01:27:46.372Z,99552.19
2022-10-01T01:30:15.540Z,99547.66
2022-10-01T01:32:43.009Z,99550.34
2022-10-01T01:35:11.631Z,99546.13
2022-10-01T01:37:45.366Z,99544.63
2022-10-01T01:40:15.254Z,99543.28
2022-10-01T01:42:44.356Z,99539.00
2022-10-01T01:45:16.052Z,99549.56
2022-10-01T01:47:44.152Z,99544.84
2022-10-01T01:50:12.655Z,99483.44
2022-10-01T01:52:40.074Z,99537.50
2022-10-01T01:55:09.339Z,99542.19
2022-10-01T01:57:38.034Z,99535.75
2022-10-01T02:00:05.350Z,99541.03
2022-10-01T02:02:36.458Z,99540.63
2022-10-01T02:05:10.123Z,99535.69
2022-10-01T02:07:46.700Z,99530.97
2022-10-01T02:10:24.802Z,99533.47
2022-10-01T02:13:02.307Z,99533.19
2022-10-01T02:15:37.166Z,99526.31
2022-10-01T02:18:30.364Z,99526.44
2022-10-01T02:21:04.160Z,99524.03
2022-10-01T02:23:38.379Z,99526.25
2022-10-01T02:26:08.929Z,99514.63
2022-10-01T02:28:38.281Z,99517.69
2022-10-01T02:31:05.723Z,99510.03
2022-10-01T02:33:35.602Z,99513.53
2022-10-01T02:36:04.861Z,99509.63
2022-10-01T02:38:33.732Z,99506.53
2022-10-01T02:41:02.663Z,99507.84
2022-10-01T02:43:33.813Z,99509.31
2022-10-01T02:46:05.296Z,99503.66
2022-10-01T02:48:32.573Z,99503.09
2022-10-01T02:51:22.981Z,99502.47
2022-10-01T02:53:53.030Z,99496.03
2022-10-01T02:56:48.399Z,99502.31
2022-10-01T02:59:16.015Z,99495.53
2022-10-01T03:01:43.440Z,99491.59
2022-10-01T03:04:10.709Z,99487.63
2022-10-01T03:06:37.938Z,99494.75
2022-10-01T03:09:05.466Z,99490.28
2022-10-01T03:11:32.880Z,99488.38
2022-10-01T03:14:01.137Z,99488.50
2022-10-01T03:16:28.559Z,99490.69
2022-10-01T03:18:55.966Z,99488.59
2022-10-01T03:21:23.169Z,99490.78
2022-10-01T03:23:50.368Z,99496.22
2022-10-01T03:26:17.705Z,99490.34
2022-10-01T03:28:45.005Z,99494.69
2022-10-01T03:31:12.404Z,99489.06
2022-10-01T03:33:41.309Z,99489.84
2022-10-01T03:36:08.479Z,99494.13
2022-10-01T03:38:35.836Z,99494.25
2022-10-01T03:41:03.066Z,99483.91
2022-10-01T03:43:30.549Z,99481.13
2022-10-01T03:45:58.244Z,99480.38
2022-10-01T03:48:25.419Z,99475.53
2022-10-01T03:50:54.109Z,99481.44
2022-10-01T03:53:21.699Z,99482.06
2022-10-01T03:55:48.940Z,99483.00
2022-10-01T03:58:16.894Z,99482.44
2022-10-01T04:00:44.542Z,99480.72
2022-10-01T04:03:11.912Z,99487.25
2022-10-01T04:05:40.594Z,99479.28
2022-10-01T04:08:08.126Z,99477.94
2022-10-01T04:10:35.524Z,99484.94
2022-10-01T04:13:02.927Z,99482.84
2022-10-01T04:15:30.214Z,99483.50
2022-10-01T04:17:58.222Z,99485.16
2022-10-01T04:20:25.418Z,99484.81
2022-10-01T04:22:53.321Z,99484.16
2022-10-01T04:25:20.559Z,99488.44
2022-10-01T04:27:57.941Z,99480.25
2022-10-01T04:30:26.008Z,99493.72
2022-10-01T04:32:53.000Z,99485.00
2022-10-01T04:35:20.287Z,99483.59
2022-10-01T04:37:47.941Z,99479.88
2022-10-01T04:40:15.195Z,99492.53
2022-10-01T04:42:43.765Z,99484.34
2022-10-01T04:45:11.160Z,99482.72
2022-10-01T04:47:38.872Z,99477.72
2022-10-01T04:50:06.346Z,99482.47
2022-10-01T04:52:33.389Z,99483.81
2022-10-01T04:55:00.401Z,99485.41
2022-10-01T04:57:28.785Z,99484.56
2022-10-01T04:59:56.114Z,99485.13
2022-10-01T05:02:23.357Z,99479.81
2022-10-01T05:04:50.512Z,99486.19
2022-10-01T05:07:19.601Z,99482.28
2022-10-01T05:09:46.818Z,99482.91
2022-10-01T05:12:14.842Z,99483.28
2022-10-01T05:14:42.010Z,99481.78
2022-10-01T05:17:09.500Z,99484.66
2022-10-01T05:19:37.053Z,99487.13
2022-10-01T05:22:04.507Z,99487.97
2022-10-01T05:24:31.609Z,99485.03
2022-10-01T05:26:58.834Z,99481.06
2022-10-01T05:29:26.397Z,99476.66
2022-10-01T05:31:53.562Z,99481.91
2022-10-01T05:34:21.139Z,99485.50
2022-10-01T05:36:48.408Z,99481.22
2022-10-01T05:39:15.751Z,99469.53
2022-10-01T05:41:43.145Z,99466.13
2022-10-01T05:44:10.243Z,99461.66
2022-10-01T05:46:37.943Z,99465.44
2022-10-01T05:49:07.886Z,99466.94
2022-10-01T05:51:36.667Z,99463.72
2022-10-01T05:54:04.542Z,99461.81
2022-10-01T05:56:31.912Z,99460.56
2022-10-01T05:58:59.711Z,99463.63
2022-10-01T06:01:26.775Z,99461.97
2022-10-01T06:03:54.177Z,99458.44
2022-10-01T06:06:25.096Z,99458.56
2022-10-01T06:08:52.724Z,99455.44
2022-10-01T06:11:22.759Z,99460.09
2022-10-01T06:13:51.217Z,99456.88
2022-10-01T06:16:18.486Z,99452.19
2022-10-01T06:18:47.319Z,99458.19
2022-10-01T06:21:14.505Z,99449.25
2022-10-01T06:23:44.429Z,99457.03
2022-10-01T06:26:11.928Z,99451.06
2022-10-01T06:28:39.985Z,99449.41
2022-10-01T06:31:07.144Z,99441.84
2022-10-01T06:33:34.674Z,99445.22
2022-10-01T06:36:03.477Z,99438.00
2022-10-01T06:38:31.249Z,99435.75
2022-10-01T06:40:59.616Z,99434.38
2022-10-01T06:43:30.429Z,99434.91
2022-10-01T06:46:00.875Z,99431.94
2022-10-01T06:48:31.468Z,99439.19
2022-10-01T06:50:59.421Z,99438.34
2022-10-01T06:53:27.679Z,99434.28
2022-10-01T06:55:55.304Z,99429.25
2022-10-01T06:58:23.681Z,99425.00
2022-10-01T07:00:51.177Z,99426.75
2022-10-01T07:03:20.162Z,99424.59
2022-10-01T07:05:48.038Z,99418.94
2022-10-01T07:08:15.359Z,99412.97
2022-10-01T07:10:44.323Z,99411.91
2022-10-01T07:13:16.954Z,99419.25
2022-10-01T07:15:45.159Z,99422.13
2022-10-01T07:18:13.023Z,99416.59
2022-10-01T07:20:40.984Z,99409.03
2022-10-01T07:23:10.549Z,99402.06
2022-10-01T07:25:39.002Z,99409.00
2022-10-01T07:28:08.278Z,99411.69
2022-10-01T07:30:35.533Z,99411.03
2022-10-01T07:33:02.755Z,99403.91
2022-10-01T07:35:29.940Z,99394.38
2022-10-01T07:37:57.201Z,99396.97
2022-10-01T07:40:24.565Z,99397.94
2022-10-01T07:42:55.667Z,99392.69
2022-10-01T07:45:23.462Z,99393.53
2022-10-01T07:47:55.056Z,99391.72
2022-10-01T07:50:22.584Z,99390.44
2022-10-01T07:52:57.133Z,99385.00
2022-10-01T07:55:27.373Z,99379.78
2022-10-01T07:57:55.298Z,99374.66
2022-10-01T08:00:23.357Z,99368.69
2022-10-01T08:02:51.532Z,99375.84
2022-10-01T08:05:19.291Z,99363.75
2022-10-01T08:07:46.965Z,99360.75
2022-10-01T08:10:15.329Z,99356.56
2022-10-01T08:12:42.951Z,99357.00
2022-10-01T08:15:19.071Z,99347.06
2022-10-01T08:17:46.641Z,99347.97
2022-10-01T08:20:15.269Z,99300.53
2022-10-01T08:22:42.677Z,99343.25
2022-10-01T08:25:10.517Z,99342.69
2022-10-01T08:27:37.874Z,99340.47
2022-10-01T08:30:05.649Z,99330.97
2022-10-01T08:32:33.469Z,99330.16
2022-10-01T08:35:01.498Z,99332.22
2022-10-01T08:37:30.352Z,99322.38
2022-10-01T08:39:57.592Z,99320.81
2022-10-01T08:42:41.501Z,99322.50
2022-10-01T08:45:23.870Z,99321.38
2022-10-01T08:48:11.373Z,99319.78
2022-10-01T08:50:41.381Z,99319.88
2022-10-01T08:53:14.430Z,99314.00
2022-10-01T08:55:41.846Z,99303.00
2022-10-01T08:58:11.284Z,99303.31
2022-10-01T09:00:40.508Z,99308.25
2022-10-01T09:03:12.063Z,99306.88
2022-10-01T09:05:59.096Z,99307.03
2022-10-01T09:08:45.056Z,99299.84
2022-10-01T09:11:22.392Z,99292.47
2022-10-01T09:14:08.334Z,99295.38
2022-10-01T09:16:52.804Z,99298.03
2022-10-01T09:19:31.761Z,99299.22
2022-10-01T09:22:02.413Z,99299.44
2022-10-01T09:24:38.382Z,99297.47
2022-10-01T09:27:10.875Z,99289.56
2022-10-01T09:29:41.832Z,99280.47
2022-10-01T09:32:15.129Z,99275.88
2022-10-01T09:34:44.542Z,99272.78
2022-10-01T09:37:18.470Z,99272.72
2022-10-01T09:40:03.655Z,99266.00
2022-10-01T09:42:31.720Z,99269.75
2022-10-01T09:44:59.184Z,99270.00
2022-10-01T09:47:26.629Z,99253.75
2022-10-01T09:49:53.983Z,99257.16
2022-10-01T09:52:41.538Z,99255.66
2022-10-01T09:55:27.830Z,99248.91
2022-10-01T09:58:09.776Z,99245.28
2022-10-01T10:00:38.252Z,99248.69
2022-10-01T10:03:05.516Z,99234.72
2022-10-01T10:05:46.971Z,99234.97
2022-10-01T10:08:30.594Z,99228.75
2022-10-01T10:11:00.763Z,99224.72
2022-10-01T10:13:35.465Z,99218.44
2022-10-01T10:16:26.368Z,99213.69
2022-10-01T10:18:57.892Z,99210.19
2022-10-01T10:21:26.773Z,99205.03
2022-10-01T10:23:59.478Z,99204.59
2022-10-01T10:26:28.742Z,99198.59
2022-10-01T10:28:58.854Z,99191.13
2022-10-01T10:31:27.916Z,99198.91
2022-10-01T10:34:27.861Z,99192.81
2022-10-01T10:36:59.659Z,99185.59
2022-10-01T10:39:30.762Z,99197.03
2022-10-01T10:41:59.180Z,99191.34
2022-10-01T10:44:30.481Z,99189.41
2022-10-01T10:47:00.293Z,99184.91
2022-10-01T10:49:30.184Z,99188.59
2022-10-01T10:51:58.624Z,99185.91
2022-10-01T10:54:33.743Z,99192.09
2022-10-01T10:57:23.650Z,99173.28
2022-10-01T11:00:08.726Z,99174.50
2022-10-01T11:02:36.161Z,99178.28
2022-10-01T11:05:04.818Z,99178.38
2022-10-01T11:07:32.563Z,99165.22
2022-10-01T11:10:11.771Z,99161.91
2022-10-01T11:12:57.537Z,99167.16
2022-10-01T11:15:30.996Z,99166.19
2022-10-01T11:18:01.015Z,99167.09
2022-10-01T11:20:34.752Z,99161.75
2022-10-01T11:23:05.274Z,99158.44
2022-10-01T11:25:51.065Z,99156.66
2022-10-01T11:28:37.286Z,99151.31
2022-10-01T11:31:25.113Z,99147.91
2022-10-01T11:33:52.411Z,99140.72
2022-10-01T11:36:19.650Z,99140.59
2022-10-01T11:39:05.958Z,99141.56
2022-10-01T11:41:39.814Z,99136.97
2022-10-01T11:44:16.301Z,99124.97
2022-10-01T11:46:54.320Z,99133.97
2022-10-01T11:49:35.109Z,99132.41
2022-10-01T11:52:11.588Z,99120.53
2022-10-01T11:54:45.122Z,99124.41
2022-10-01T11:57:32.614Z,99125.56
2022-10-01T12:00:02.813Z,99114.69
2022-10-01T12:02:39.920Z,99117.59
2022-10-01T12:05:07.322Z,99116.09
2022-10-01T12:07:53.262Z,99109.72
2022-10-01T12:10:40.805Z,99110.09
2022-10-01T12:13:13.920Z,99108.81
2022-10-01T12:15:44.491Z,99102.47
2022-10-01T12:18:12.875Z,99090.63
2022-10-01T12:20:43.178Z,99091.69
2022-10-01T12:23:36.869Z,99085.81
2022-10-01T12:26:16.351Z,99077.19
2022-10-01T12:28:56.678Z,99077.88
2022-10-01T12:31:50.014Z,99083.09
2022-10-01T12:34:17.517Z,99080.41
2022-10-01T12:36:56.245Z,99071.94
2022-10-01T12:39:32.253Z,99076.97
2022-10-01T12:42:11.940Z,99078.69
2022-10-01T12:44:46.179Z,99080.22
2022-10-01T12:47:36.629Z,99069.81
2022-10-01T12:50:15.908Z,99070.84
2022-10-01T12:52:53.938Z,99072.63
2022-10-01T12:55:39.519Z,99066.75
2022-10-01T12:58:24.447Z,99072.34
2022-10-01T13:01:04.799Z,99064.16
2022-10-01T13:03:31.909Z,99065.56
2022-10-01T13:05:59.021Z,99059.31
2022-10-01T13:08:47.836Z,99057.53
2022-10-01T13:11:28.738Z,99049.78
2022-10-01T13:13:57.223Z,99038.06
2022-10-01T13:16:39.932Z,99036.97
2022-10-01T13:19:35.272Z,99038.91
2022-10-01T13:22:07.858Z,99036.38
2022-10-01T13:24:35.126Z,99034.69
2022-10-01T13:27:05.509Z,99037.38
2022-10-01T13:29:37.849Z,99033.97
2022-10-01T13:32:26.192Z,99034.94
2022-10-01T13:34:53.979Z,99040.28
2022-10-01T13:37:30.440Z,99039.00
2022-10-01T13:39:58.690Z,98994.53
2022-10-01T13:42:28.048Z,99035.66
2022-10-01T13:44:57.041Z,99040.69
2022-10-01T13:47:25.287Z,99037.41
2022-10-01T13:50:06.284Z,99033.63
2022-10-01T13:52:34.254Z,99038.97
2022-10-01T13:55:02.139Z,99034.72
2022-10-01T13:57:37.707Z,99026.97
2022-10-01T14:00:04.997Z,99027.22
2022-10-01T14:02:37.302Z,99027.34
2022-10-01T14:05:23.541Z,99024.81
2022-10-01T14:07:55.309Z,99019.00
2022-10-01T14:10:23.617Z,99017.28
2022-10-01T14:13:09.699Z,99023.63
2022-10-01T14:15:58.885Z,99010.25
2022-10-01T14:18:28.876Z,98997.38
2022-10-01T14:21:11.464Z,98996.91
2022-10-01T14:23:44.661Z,98985.75
2022-10-01T14:26:17.263Z,98984.19
2022-10-01T14:29:10.896Z,98972.84
2022-10-01T14:31:50.869Z,98958.16
2022-10-01T14:34:18.840Z,98957.22
2022-10-01T14:36:48.702Z,98953.38
2022-10-01T14:39:23.638Z,98961.63
2022-10-01T14:41:52.580Z,98962.63
2022-10-01T14:44:22.209Z,98964.44
2022-10-01T14:46:50.417Z,98967.97
2022-10-01T14:49:23.532Z,98962.63
2022-10-01T14:52:11.129Z,98960.06
2022-10-01T14:54:47.730Z,98956.91
2022-10-01T14:57:19.320Z,98955.72
2022-10-01T14:59:48.170Z,98959.75
2022-10-01T15:02:23.373Z,98953.94
2022-10-01T15:04:52.501Z,98954.16
2022-10-01T15:07:19.801Z,98950.19
2022-10-01T15:09:48.232Z,98937.44
2022-10-01T15:12:16.934Z,98935.28
2022-10-01T15:14:44.954Z,98928.47
2022-10-01T15:17:26.882Z,98924.34
2022-10-01T15:19:55.571Z,98922.91
2022-10-01T15:22:28.570Z,98915.13
2022-10-01T15:24:59.748Z,98911.88
2022-10-01T15:27:27.281Z,98895.22
2022-10-01T15:29:56.856Z,98907.00
2022-10-01T15:32:24.408Z,98891.38
2022-10-01T15:34:53.202Z,98892.34
2022-10-01T15:37:38.578Z,98890.97
2022-10-01T15:40:06.959Z,98883.22
2022-10-01T15:42:34.989Z,98880.81
2022-10-01T15:45:08.866Z,98873.03
2022-10-01T15:47:40.096Z,98875.81
2022-10-01T15:50:10.101Z,98864.56
2022-10-01T15:52:51.453Z,98863.72
2022-10-01T15:55:24.146Z,98858.47
2022-10-01T15:58:17.783Z,98844.88
2022-10-01T16:00:48.098Z,98850.13
2022-10-01T16:03:23.485Z,98838.19
2022-10-01T16:05:51.664Z,98838.19
2022-10-01T16:08:21.993Z,98840.75
2022-10-01T16:11:08.084Z,98844.28
2022-10-01T16:13:38.857Z,98838.81
2022-10-01T16:16:19.601Z,98828.75
2022-10-01T16:18:56.406Z,98828.38
2022-10-01T16:21:24.437Z,98822.19
2022-10-01T16:23:53.212Z,98810.06
2022-10-01T16:26:32.780Z,98805.91
2022-10-01T16:29:01.695Z,98799.00
2022-10-01T16:31:29.658Z,98796.47
2022-10-01T16:33:57.067Z,98793.94
2022-10-01T16:36:26.348Z,98798.31
2022-10-01T16:38:53.782Z,98796.13
2022-10-01T16:41:25.582Z,98784.19
2022-10-01T16:43:54.394Z,98783.00
2022-10-01T16:46:21.676Z,98780.94
2022-10-01T16:48:49.715Z,98780.81
2022-10-01T16:51:16.935Z,98776.66
2022-10-01T16:53:44.268Z,98771.47
2022-10-01T16:56:12.377Z,98773.16
2022-10-01T16:58:40.222Z,98759.34
2022-10-01T17:01:12.034Z,98757.88
2022-10-01T17:03:40.288Z,98749.19
2022-10-01T17:06:07.521Z,98745.41
2022-10-01T17:08:34.837Z,98744.53
2022-10-01T17:11:03.019Z,98739.19
2022-10-01T17:13:32.928Z,98729.50
2022-10-01T17:16:00.880Z,98730.69
2022-10-01T17:18:28.769Z,98718.81
2022-10-01T17:20:56.414Z,98711.88
2022-10-01T17:25:51.287Z,98705.94
2022-10-01T17:28:20.108Z,98705.81
2022-10-01T17:30:48.293Z,98699.16
2022-10-01T17:33:16.466Z,98691.50
2022-10-01T17:35:44.683Z,98686.91
2022-10-01T17:38:12.723Z,98681.97
2022-10-01T17:40:41.686Z,98676.91
2022-10-01T17:43:13.073Z,98670.00
2022-10-01T17:45:40.454Z,98674.72
2022-10-01T17:48:08.168Z,98666.38
2022-10-01T17:50:35.601Z,98663.56
2022-10-01T17:53:02.795Z,98663.31
2022-10-01T17:55:30.385Z,98658.72
2022-10-01T17:57:57.522Z,98655.78
2022-10-01T18:00:24.886Z,98644.78
2022-10-01T18:02:52.218Z,98633.03
2022-10-01T18:07:47.099Z,98623.25
2022-10-01T18:10:14.457Z,98620.84
2022-10-01T18:12:41.777Z,98620.53
2022-10-01T18:15:09.427Z,98611.91
2022-10-01T18:17:43.216Z,98609.63
2022-10-01T18:20:10.968Z,98604.31
2022-10-01T18:22:38.393Z,98597.97
2022-10-01T18:25:06.004Z,98588.16
2022-10-01T18:27:33.162Z,98589.97
2022-10-01T18:30:00.288Z,98579.22
2022-10-01T18:32:31.905Z,98571.44
2022-10-01T18:35:00.140Z,98560.94
2022-10-01T18:37:41.270Z,98560.00
2022-10-01T18:40:12.788Z,98569.47
2022-10-01T18:42:47.060Z,98569.47
2022-10-01T18:45:16.490Z,98580.88
2022-10-01T18:47:52.843Z,98580.72
2022-10-01T18:50:22.952Z,98606.03
2022-10-01T18:53:11.272Z,98594.28
2022-10-01T18:55:49.117Z,98585.91
2022-10-01T18:58:16.888Z,98590.63
2022-10-01T19:00:49.323Z,98577.03
2022-10-01T19:03:24.713Z,98574.25
2022-10-01T19:06:10.562Z,98567.25
2022-10-01T19:08:48.512Z,98565.56
2022-10-01T19:11:25.627Z,98570.41
2022-10-01T19:13:55.685Z,98572.69
2022-10-01T19:16:23.047Z,98567.88
2022-10-01T19:18:59.329Z,98572.25
2022-10-01T19:21:52.322Z,98560.75
2022-10-01T19:24:20.777Z,98553.13
2022-10-01T19:26:54.349Z,98548.88
2022-10-01T19:29:25.025Z,98545.25
2022-10-01T19:31:56.707Z,98535.56
2022-10-01T19:34:30.318Z,98526.59
2022-10-01T19:37:03.844Z,98533.28
2022-10-01T19:39:35.071Z,98523.00
2022-10-01T19:42:05.873Z,98522.50
2022-10-01T19:44:56.563Z,98509.19
2022-10-01T19:47:33.027Z,98508.84
2022-10-01T19:50:06.760Z,98505.22
2022-10-01T19:52:38.196Z,98500.13
2022-10-01T19:55:12.877Z,98504.25
2022-10-01T19:57:41.588Z,98497.25
2022-10-01T20:00:17.739Z,98491.91
2022-10-01T20:03:04.179Z,98479.94
2022-10-01T20:05:52.543Z,98481.16
2022-10-01T20:08:34.215Z,98473.91
2022-10-01T20:11:11.245Z,98473.06
2022-10-01T20:14:01.741Z,98464.44
2022-10-01T20:16:32.527Z,98461.44
2022-10-01T20:18:59.921Z,98454.50
2022-10-01T20:21:45.732Z,98450.53
2022-10-01T20:24:31.613Z,98452.56
2022-10-01T20:27:14.054Z,98451.63
2022-10-01T20:30:04.206Z,98450.75
2022-10-01T20:32:47.170Z,98447.25
2022-10-01T20:35:20.952Z,98446.28
2022-10-01T20:37:59.493Z,98445.06
2022-10-01T20:40:29.103Z,98445.78
2022-10-01T20:43:06.300Z,98448.31
2022-10-01T20:45:35.537Z,98445.03
2022-10-01T20:48:14.532Z,98439.22
2022-10-01T20:50:46.417Z,98445.75
2022-10-01T20:53:25.152Z,98443.19
2022-10-01T20:56:01.707Z,98444.88
2022-10-01T20:58:31.668Z,98429.50
2022-10-01T21:01:03.112Z,98434.22
2022-10-01T21:03:32.225Z,98433.91
2022-10-01T21:06:08.262Z,98435.94
2022-10-01T21:08:57.657Z,98440.56
2022-10-01T21:11:32.189Z,98435.09
2022-10-01T21:14:19.528Z,98440.06
2022-10-01T21:16:53.147Z,98430.72
2022-10-01T21:19:39.121Z,98431.19
2022-10-01T21:22:21.795Z,98422.72
2022-10-01T21:24:52.328Z,98425.53
2022-10-01T21:27:35.110Z,98419.09
2022-10-01T21:30:02.510Z,98423.19
2022-10-01T21:32:36.851Z,98426.59
2022-10-01T21:35:13.933Z,98425.84
2022-10-01T21:37:43.173Z,98426.19
2022-10-01T21:40:46.398Z,98422.16
2022-10-01T21:43:19.152Z,98426.66
2022-10-01T21:46:03.221Z,98429.44
2022-10-01T21:48:39.009Z,98433.81
2022-10-01T21:51:15.338Z,98424.81
2022-10-01T21:53:58.381Z,98418.66
2022-10-01T21:56:26.649Z,98425.81
2022-10-01T21:59:13.106Z,98425.94
2022-10-01T22:01:48.038Z,98432.25
2022-10-01T22:04:22.326Z,98432.25
2022-10-01T22:06:58.414Z,98433.94
2022-10-01T22:09:32.031Z,98430.28
2022-10-01T22:12:00.686Z,98438.41
2022-10-01T22:14:28.030Z,98437.69
2022-10-01T22:17:03.688Z,98435.59
2022-10-01T22:19:37.439Z,98441.81
2022-10-01T22:22:05.064Z,98437.69
2022-10-01T22:24:36.856Z,98432.34
2022-10-01T22:27:04.056Z,98442.28
2022-10-01T22:29:31.924Z,98447.63
2022-10-01T22:32:02.412Z,98442.69
2022-10-01T22:34:33.800Z,98448.97
2022-10-01T22:37:22.788Z,98439.53
2022-10-01T22:39:55.944Z,98443.41
2022-10-01T22:42:30.535Z,98452.13
2022-10-01T22:45:01.827Z,98456.72
2022-10-01T22:47:30.920Z,98442.81
2022-10-01T22:50:12.723Z,98457.81
2022-10-01T22:52:46.266Z,98457.25
2022-10-01T22:55:26.013Z,98461.63
2022-10-01T22:57:59.390Z,98455.72
2022-10-01T23:00:26.465Z,98461.06
2022-10-01T23:03:07.136Z,98452.13
2022-10-01T23:05:40.985Z,98450.31
2022-10-01T23:08:16.701Z,98462.56
2022-10-01T23:10:44.256Z,98454.44
2022-10-01T23:13:18.060Z,98457.69
2022-10-01T23:16:11.280Z,98460.59
2022-10-01T23:18:57.389Z,98456.47
2022-10-01T23:21:35.867Z,98459.72
2022-10-01T23:24:14.661Z,98460.31
2022-10-01T23:26:56.951Z,98461.78
2022-10-01T23:29:24.155Z,98463.03
2022-10-01T23:32:00.386Z,98463.75
2022-10-01T23:34:41.396Z,98458.94
2022-10-01T23:37:17.547Z,98462.66
2022-10-01T23:39:51.099Z,98463.94
2022-10-01T23:42:21.118Z,98460.69
2022-10-01T23:44:52.377Z,98473.56
2022-10-01T23:47:22.465Z,98467.78
2022-10-01T23:49:52.057Z,98467.28
2022-10-01T23:52:25.419Z,98468.47
2022-10-01T23:54:56.729Z,98465.41
2022-10-01T23:57:32.769Z,98473.84
